sensor_id;sensor_type;location;lat;lon;timestamp;P1;durP1;ratioP1;P2;durP2;ratioP2
37407;SDS011;24866;50.248;8.252;2024-03-29T00:00:01;3.83;;;1.05;;
37407;SDS011;24866;50.248;8.252;2024-03-29T00:02:30;6.93;;;1.20;;
37407;SDS011;24866;50.248;8.252;2024-03-29T00:04:59;3.30;;;0.68;;
37407;SDS011;24866;50.248;8.252;2024-03-29T00:07:28;5.80;;;1.08;;
37407;SDS011;24866;50.248;8.252;2024-03-29T00:09:58;3.97;;;0.90;;
37407;SDS011;24866;50.248;8.252;2024-03-29T00:12:27;2.80;;;0.82;;
37407;SDS011;24866;50.248;8.252;2024-03-29T00:14:58;5.93;;;0.82;;
37407;SDS011;24866;50.248;8.252;2024-03-29T00:17:27;1.70;;;0.50;;
37407;SDS011;24866;50.248;8.252;2024-03-29T00:19:56;5.28;;;0.80;;
37407;SDS011;24866;50.248;8.252;2024-03-29T00:22:25;2.53;;;0.80;;
37407;SDS011;24866;50.248;8.252;2024-03-29T00:24:54;2.00;;;0.80;;
37407;SDS011;24866;50.248;8.252;2024-03-29T00:27:24;4.32;;;0.98;;
37407;SDS011;24866;50.248;8.252;2024-03-29T00:29:53;6.18;;;0.95;;
37407;SDS011;24866;50.248;8.252;2024-03-29T00:32:24;4.20;;;0.93;;
37407;SDS011;24866;50.248;8.252;2024-03-29T00:34:54;7.20;;;1.03;;
37407;SDS011;24866;50.248;8.252;2024-03-29T00:37:23;4.82;;;1.00;;
37407;SDS011;24866;50.248;8.252;2024-03-29T00:39:52;3.75;;;0.70;;
37407;SDS011;24866;50.248;8.252;2024-03-29T00:42:22;2.33;;;0.80;;
37407;SDS011;24866;50.248;8.252;2024-03-29T00:44:51;5.30;;;1.15;;
37407;SDS011;24866;50.248;8.252;2024-03-29T00:47:20;4.03;;;1.00;;
37407;SDS011;24866;50.248;8.252;2024-03-29T00:49:51;2.67;;;0.77;;
37407;SDS011;24866;50.248;8.252;2024-03-29T00:52:20;4.65;;;1.08;;
37407;SDS011;24866;50.248;8.252;2024-03-29T00:54:50;5.68;;;0.90;;
37407;SDS011;24866;50.248;8.252;2024-03-29T00:57:19;5.45;;;1.00;;
37407;SDS011;24866;50.248;8.252;2024-03-29T00:59:48;6.60;;;1.50;;
37407;SDS011;24866;50.248;8.252;2024-03-29T01:02:17;4.82;;;1.20;;
37407;SDS011;24866;50.248;8.252;2024-03-29T01:04:46;4.90;;;1.50;;
37407;SDS011;24866;50.248;8.252;2024-03-29T01:07:17;3.22;;;1.30;;
37407;SDS011;24866;50.248;8.252;2024-03-29T01:09:46;5.28;;;1.30;;
37407;SDS011;24866;50.248;8.252;2024-03-29T01:12:15;5.30;;;1.42;;
37407;SDS011;24866;50.248;8.252;2024-03-29T01:14:46;4.10;;;1.20;;
37407;SDS011;24866;50.248;8.252;2024-03-29T01:17:15;6.53;;;2.28;;
37407;SDS011;24866;50.248;8.252;2024-03-29T01:19:44;6.47;;;1.35;;
37407;SDS011;24866;50.248;8.252;2024-03-29T01:22:13;5.40;;;1.45;;
37407;SDS011;24866;50.248;8.252;2024-03-29T01:24:44;7.25;;;1.33;;
37407;SDS011;24866;50.248;8.252;2024-03-29T01:27:13;5.32;;;1.30;;
37407;SDS011;24866;50.248;8.252;2024-03-29T01:29:42;4.05;;;1.38;;
37407;SDS011;24866;50.248;8.252;2024-03-29T01:32:12;4.63;;;1.00;;
37407;SDS011;24866;50.248;8.252;2024-03-29T01:34:41;5.10;;;1.38;;
37407;SDS011;24866;50.248;8.252;2024-03-29T01:37:10;5.28;;;1.63;;
37407;SDS011;24866;50.248;8.252;2024-03-29T01:39:39;4.82;;;0.82;;
37407;SDS011;24866;50.248;8.252;2024-03-29T01:42:10;4.63;;;1.30;;
37407;SDS011;24866;50.248;8.252;2024-03-29T01:44:39;5.40;;;1.05;;
37407;SDS011;24866;50.248;8.252;2024-03-29T01:47:09;4.15;;;1.05;;
37407;SDS011;24866;50.248;8.252;2024-03-29T01:49:39;6.57;;;1.27;;
37407;SDS011;24866;50.248;8.252;2024-03-29T01:52:10;4.07;;;1.00;;
37407;SDS011;24866;50.248;8.252;2024-03-29T01:54:40;3.20;;;1.00;;
37407;SDS011;24866;50.248;8.252;2024-03-29T01:57:13;5.47;;;0.80;;
37407;SDS011;24866;50.248;8.252;2024-03-29T01:59:43;8.07;;;1.30;;
37407;SDS011;24866;50.248;8.252;2024-03-29T02:02:15;4.10;;;0.93;;
37407;SDS011;24866;50.248;8.252;2024-03-29T02:04:46;4.78;;;1.00;;
37407;SDS011;24866;50.248;8.252;2024-03-29T02:07:16;8.98;;;1.00;;
37407;SDS011;24866;50.248;8.252;2024-03-29T02:09:46;3.65;;;1.00;;
37407;SDS011;24866;50.248;8.252;2024-03-29T02:12:18;4.15;;;1.00;;
37407;SDS011;24866;50.248;8.252;2024-03-29T02:14:48;5.18;;;1.50;;
37407;SDS011;24866;50.248;8.252;2024-03-29T02:17:18;3.08;;;0.80;;
37407;SDS011;24866;50.248;8.252;2024-03-29T02:19:48;4.43;;;1.27;;
37407;SDS011;24866;50.248;8.252;2024-03-29T02:22:18;4.07;;;1.27;;
37407;SDS011;24866;50.248;8.252;2024-03-29T02:24:53;4.97;;;0.80;;
37407;SDS011;24866;50.248;8.252;2024-03-29T02:27:23;4.60;;;1.27;;
37407;SDS011;24866;50.248;8.252;2024-03-29T02:29:53;2.78;;;0.80;;
37407;SDS011;24866;50.248;8.252;2024-03-29T02:32:24;2.20;;;0.80;;
37407;SDS011;24866;50.248;8.252;2024-03-29T02:34:54;4.55;;;0.80;;
37407;SDS011;24866;50.248;8.252;2024-03-29T02:37:24;1.70;;;0.60;;
37407;SDS011;24866;50.248;8.252;2024-03-29T02:39:55;3.97;;;0.80;;
37407;SDS011;24866;50.248;8.252;2024-03-29T02:42:25;2.85;;;1.00;;
37407;SDS011;24866;50.248;8.252;2024-03-29T02:44:55;2.90;;;0.60;;
37407;SDS011;24866;50.248;8.252;2024-03-29T02:47:24;3.60;;;0.73;;
37407;SDS011;24866;50.248;8.252;2024-03-29T02:49:54;2.28;;;0.73;;
37407;SDS011;24866;50.248;8.252;2024-03-29T02:52:23;3.20;;;0.80;;
37407;SDS011;24866;50.248;8.252;2024-03-29T02:54:54;3.42;;;0.90;;
37407;SDS011;24866;50.248;8.252;2024-03-29T02:57:23;5.07;;;0.77;;
37407;SDS011;24866;50.248;8.252;2024-03-29T02:59:53;3.53;;;0.70;;
37407;SDS011;24866;50.248;8.252;2024-03-29T03:02:21;2.13;;;0.73;;
37407;SDS011;24866;50.248;8.252;2024-03-29T03:04:51;2.95;;;0.77;;
37407;SDS011;24866;50.248;8.252;2024-03-29T03:07:20;3.45;;;0.73;;
37407;SDS011;24866;50.248;8.252;2024-03-29T03:10:09;2.88;;;0.70;;
37407;SDS011;24866;50.248;8.252;2024-03-29T03:12:57;4.50;;;1.00;;
37407;SDS011;24866;50.248;8.252;2024-03-29T03:15:27;4.32;;;0.63;;
37407;SDS011;24866;50.248;8.252;2024-03-29T03:17:57;2.03;;;0.50;;
37407;SDS011;24866;50.248;8.252;2024-03-29T03:20:27;3.15;;;0.80;;
37407;SDS011;24866;50.248;8.252;2024-03-29T03:22:58;2.65;;;0.73;;
37407;SDS011;24866;50.248;8.252;2024-03-29T03:25:30;4.53;;;0.90;;
37407;SDS011;24866;50.248;8.252;2024-03-29T03:27:59;2.88;;;0.75;;
37407;SDS011;24866;50.248;8.252;2024-03-29T03:30:29;3.72;;;0.90;;
37407;SDS011;24866;50.248;8.252;2024-03-29T03:32:58;1.98;;;0.60;;
37407;SDS011;24866;50.248;8.252;2024-03-29T03:35:28;4.70;;;0.60;;
37407;SDS011;24866;50.248;8.252;2024-03-29T03:37:57;4.28;;;1.05;;
37407;SDS011;24866;50.248;8.252;2024-03-29T03:40:27;3.97;;;0.98;;
37407;SDS011;24866;50.248;8.252;2024-03-29T03:42:59;4.22;;;0.90;;
37407;SDS011;24866;50.248;8.252;2024-03-29T03:45:28;5.93;;;0.70;;
37407;SDS011;24866;50.248;8.252;2024-03-29T03:47:58;4.25;;;0.88;;
37407;SDS011;24866;50.248;8.252;2024-03-29T03:50:27;6.13;;;1.20;;
37407;SDS011;24866;50.248;8.252;2024-03-29T03:52:58;4.55;;;1.00;;
37407;SDS011;24866;50.248;8.252;2024-03-29T03:55:27;4.20;;;0.70;;
37407;SDS011;24866;50.248;8.252;2024-03-29T03:57:59;2.67;;;0.70;;
37407;SDS011;24866;50.248;8.252;2024-03-29T04:00:28;3.90;;;0.80;;
37407;SDS011;24866;50.248;8.252;2024-03-29T04:02:58;2.85;;;0.90;;
37407;SDS011;24866;50.248;8.252;2024-03-29T04:05:27;3.72;;;0.85;;
37407;SDS011;24866;50.248;8.252;2024-03-29T04:07:59;1.75;;;0.70;;
37407;SDS011;24866;50.248;8.252;2024-03-29T04:10:28;6.25;;;0.73;;
37407;SDS011;24866;50.248;8.252;2024-03-29T04:13:00;1.70;;;0.70;;
37407;SDS011;24866;50.248;8.252;2024-03-29T04:15:29;3.72;;;1.02;;
37407;SDS011;24866;50.248;8.252;2024-03-29T04:18:00;5.97;;;1.10;;
37407;SDS011;24866;50.248;8.252;2024-03-29T04:20:29;3.47;;;0.73;;
37407;SDS011;24866;50.248;8.252;2024-03-29T04:23:00;4.78;;;0.90;;
37407;SDS011;24866;50.248;8.252;2024-03-29T04:25:32;3.88;;;1.35;;
37407;SDS011;24866;50.248;8.252;2024-03-29T04:28:04;3.38;;;0.73;;
37407;SDS011;24866;50.248;8.252;2024-03-29T04:30:33;3.50;;;0.70;;
37407;SDS011;24866;50.248;8.252;2024-03-29T04:33:03;3.55;;;0.85;;
37407;SDS011;24866;50.248;8.252;2024-03-29T04:35:32;4.43;;;1.10;;
37407;SDS011;24866;50.248;8.252;2024-03-29T04:38:03;4.18;;;0.93;;
37407;SDS011;24866;50.248;8.252;2024-03-29T04:40:33;3.67;;;0.70;;
37407;SDS011;24866;50.248;8.252;2024-03-29T04:43:04;3.75;;;0.90;;
37407;SDS011;24866;50.248;8.252;2024-03-29T04:45:33;2.88;;;0.80;;
37407;SDS011;24866;50.248;8.252;2024-03-29T04:48:03;2.15;;;0.88;;
37407;SDS011;24866;50.248;8.252;2024-03-29T04:50:33;2.33;;;0.95;;
37407;SDS011;24866;50.248;8.252;2024-03-29T04:53:03;3.92;;;0.80;;
37407;SDS011;24866;50.248;8.252;2024-03-29T04:55:33;2.13;;;0.77;;
37407;SDS011;24866;50.248;8.252;2024-03-29T04:58:04;2.92;;;0.80;;
37407;SDS011;24866;50.248;8.252;2024-03-29T05:00:34;2.25;;;0.82;;
37407;SDS011;24866;50.248;8.252;2024-03-29T05:03:04;4.03;;;1.10;;
37407;SDS011;24866;50.248;8.252;2024-03-29T05:05:34;2.50;;;0.80;;
37407;SDS011;24866;50.248;8.252;2024-03-29T05:08:05;2.20;;;0.73;;
37407;SDS011;24866;50.248;8.252;2024-03-29T05:10:35;2.72;;;0.73;;
37407;SDS011;24866;50.248;8.252;2024-03-29T05:13:06;5.13;;;0.80;;
37407;SDS011;24866;50.248;8.252;2024-03-29T05:15:37;5.15;;;1.10;;
37407;SDS011;24866;50.248;8.252;2024-03-29T05:18:07;3.58;;;0.77;;
37407;SDS011;24866;50.248;8.252;2024-03-29T05:20:37;4.60;;;1.35;;
37407;SDS011;24866;50.248;8.252;2024-03-29T05:23:09;4.22;;;1.10;;
37407;SDS011;24866;50.248;8.252;2024-03-29T05:25:42;3.00;;;0.88;;
37407;SDS011;24866;50.248;8.252;2024-03-29T05:28:13;2.67;;;0.65;;
37407;SDS011;24866;50.248;8.252;2024-03-29T05:30:44;3.78;;;1.38;;
37407;SDS011;24866;50.248;8.252;2024-03-29T05:33:14;4.50;;;1.20;;
37407;SDS011;24866;50.248;8.252;2024-03-29T05:35:44;1.92;;;0.70;;
37407;SDS011;24866;50.248;8.252;2024-03-29T05:38:14;2.25;;;0.98;;
37407;SDS011;24866;50.248;8.252;2024-03-29T05:40:45;3.63;;;1.60;;
37407;SDS011;24866;50.248;8.252;2024-03-29T05:43:17;2.70;;;1.08;;
37407;SDS011;24866;50.248;8.252;2024-03-29T05:45:47;4.68;;;1.55;;
37407;SDS011;24866;50.248;8.252;2024-03-29T05:48:21;5.22;;;1.27;;
37407;SDS011;24866;50.248;8.252;2024-03-29T05:50:52;4.20;;;0.93;;
37407;SDS011;24866;50.248;8.252;2024-03-29T05:53:22;3.10;;;1.10;;
37407;SDS011;24866;50.248;8.252;2024-03-29T05:55:52;7.32;;;1.23;;
37407;SDS011;24866;50.248;8.252;2024-03-29T05:58:23;3.70;;;1.50;;
37407;SDS011;24866;50.248;8.252;2024-03-29T06:00:53;4.25;;;1.60;;
37407;SDS011;24866;50.248;8.252;2024-03-29T06:03:23;2.42;;;1.13;;
37407;SDS011;24866;50.248;8.252;2024-03-29T06:05:53;6.93;;;2.00;;
37407;SDS011;24866;50.248;8.252;2024-03-29T06:08:23;3.58;;;1.45;;
37407;SDS011;24866;50.248;8.252;2024-03-29T06:10:55;7.88;;;2.03;;
37407;SDS011;24866;50.248;8.252;2024-03-29T06:13:28;5.78;;;1.50;;
37407;SDS011;24866;50.248;8.252;2024-03-29T06:16:19;3.58;;;1.00;;
37407;SDS011;24866;50.248;8.252;2024-03-29T06:19:12;3.42;;;1.13;;
37407;SDS011;24866;50.248;8.252;2024-03-29T06:21:43;4.75;;;1.35;;
37407;SDS011;24866;50.248;8.252;2024-03-29T06:24:13;5.93;;;1.90;;
37407;SDS011;24866;50.248;8.252;2024-03-29T06:26:44;6.65;;;2.50;;
37407;SDS011;24866;50.248;8.252;2024-03-29T06:29:16;4.40;;;2.22;;
37407;SDS011;24866;50.248;8.252;2024-03-29T06:31:46;8.95;;;2.10;;
37407;SDS011;24866;50.248;8.252;2024-03-29T06:34:15;4.75;;;1.27;;
37407;SDS011;24866;50.248;8.252;2024-03-29T06:36:45;3.65;;;1.50;;
37407;SDS011;24866;50.248;8.252;2024-03-29T06:39:15;3.20;;;1.10;;
37407;SDS011;24866;50.248;8.252;2024-03-29T06:41:45;2.20;;;1.10;;
37407;SDS011;24866;50.248;8.252;2024-03-29T06:44:17;8.75;;;1.60;;
37407;SDS011;24866;50.248;8.252;2024-03-29T06:46:47;4.45;;;1.30;;
37407;SDS011;24866;50.248;8.252;2024-03-29T06:49:17;3.42;;;1.20;;
37407;SDS011;24866;50.248;8.252;2024-03-29T06:51:47;6.90;;;1.40;;
37407;SDS011;24866;50.248;8.252;2024-03-29T06:54:17;4.60;;;1.17;;
37407;SDS011;24866;50.248;8.252;2024-03-29T06:59:21;3.63;;;1.15;;
37407;SDS011;24866;50.248;8.252;2024-03-29T07:01:51;3.45;;;1.45;;
37407;SDS011;24866;50.248;8.252;2024-03-29T07:04:23;2.03;;;1.00;;
37407;SDS011;24866;50.248;8.252;2024-03-29T07:06:53;6.00;;;1.40;;
37407;SDS011;24866;50.248;8.252;2024-03-29T07:09:23;2.75;;;1.05;;
37407;SDS011;24866;50.248;8.252;2024-03-29T07:11:53;4.10;;;1.27;;
37407;SDS011;24866;50.248;8.252;2024-03-29T07:14:25;5.40;;;1.60;;
37407;SDS011;24866;50.248;8.252;2024-03-29T07:16:56;2.67;;;1.00;;
37407;SDS011;24866;50.248;8.252;2024-03-29T07:19:25;4.30;;;1.55;;
37407;SDS011;24866;50.248;8.252;2024-03-29T07:21:55;4.68;;;1.40;;
37407;SDS011;24866;50.248;8.252;2024-03-29T07:24:25;4.07;;;1.38;;
37407;SDS011;24866;50.248;8.252;2024-03-29T07:26:56;6.47;;;1.77;;
37407;SDS011;24866;50.248;8.252;2024-03-29T07:29:27;5.20;;;2.00;;
37407;SDS011;24866;50.248;8.252;2024-03-29T07:31:57;5.60;;;2.05;;
37407;SDS011;24866;50.248;8.252;2024-03-29T07:34:27;5.68;;;2.95;;
37407;SDS011;24866;50.248;8.252;2024-03-29T07:36:57;8.70;;;2.80;;
37407;SDS011;24866;50.248;8.252;2024-03-29T07:39:27;6.55;;;2.75;;
37407;SDS011;24866;50.248;8.252;2024-03-29T07:41:58;5.50;;;2.30;;
37407;SDS011;24866;50.248;8.252;2024-03-29T07:44:29;5.40;;;2.05;;
37407;SDS011;24866;50.248;8.252;2024-03-29T07:46:59;3.40;;;1.75;;
37407;SDS011;24866;50.248;8.252;2024-03-29T07:49:29;5.43;;;2.38;;
37407;SDS011;24866;50.248;8.252;2024-03-29T07:51:59;3.92;;;1.80;;
37407;SDS011;24866;50.248;8.252;2024-03-29T07:54:33;4.40;;;2.38;;
37407;SDS011;24866;50.248;8.252;2024-03-29T07:57:03;3.58;;;1.90;;
37407;SDS011;24866;50.248;8.252;2024-03-29T07:59:38;6.88;;;1.83;;
37407;SDS011;24866;50.248;8.252;2024-03-29T08:02:08;7.32;;;1.30;;
37407;SDS011;24866;50.248;8.252;2024-03-29T08:04:38;3.08;;;1.27;;
37407;SDS011;24866;50.248;8.252;2024-03-29T08:07:11;4.90;;;1.70;;
37407;SDS011;24866;50.248;8.252;2024-03-29T08:09:41;3.78;;;1.65;;
37407;SDS011;24866;50.248;8.252;2024-03-29T08:12:11;2.42;;;1.30;;
37407;SDS011;24866;50.248;8.252;2024-03-29T08:14:43;3.50;;;2.08;;
37407;SDS011;24866;50.248;8.252;2024-03-29T08:17:14;2.58;;;1.48;;
37407;SDS011;24866;50.248;8.252;2024-03-29T08:19:44;6.03;;;1.60;;
37407;SDS011;24866;50.248;8.252;2024-03-29T08:22:16;4.38;;;1.90;;
37407;SDS011;24866;50.248;8.252;2024-03-29T08:24:46;4.25;;;1.55;;
37407;SDS011;24866;50.248;8.252;2024-03-29T08:27:16;3.45;;;1.70;;
37407;SDS011;24866;50.248;8.252;2024-03-29T08:29:48;4.43;;;1.77;;
37407;SDS011;24866;50.248;8.252;2024-03-29T08:32:18;2.67;;;1.42;;
37407;SDS011;24866;50.248;8.252;2024-03-29T08:34:48;6.75;;;1.60;;
37407;SDS011;24866;50.248;8.252;2024-03-29T08:37:20;2.57;;;1.07;;
37407;SDS011;24866;50.248;8.252;2024-03-29T08:39:50;3.33;;;1.05;;
37407;SDS011;24866;50.248;8.252;2024-03-29T08:42:20;4.55;;;1.30;;
37407;SDS011;24866;50.248;8.252;2024-03-29T08:44:52;5.47;;;2.53;;
37407;SDS011;24866;50.248;8.252;2024-03-29T08:47:23;2.33;;;1.20;;
37407;SDS011;24866;50.248;8.252;2024-03-29T08:49:53;3.53;;;1.33;;
37407;SDS011;24866;50.248;8.252;2024-03-29T08:52:23;2.47;;;1.40;;
37407;SDS011;24866;50.248;8.252;2024-03-29T08:54:53;4.65;;;0.95;;
37407;SDS011;24866;50.248;8.252;2024-03-29T08:57:23;1.13;;;0.68;;
37407;SDS011;24866;50.248;8.252;2024-03-29T08:59:55;2.72;;;1.30;;
37407;SDS011;24866;50.248;8.252;2024-03-29T09:02:25;3.17;;;0.95;;
37407;SDS011;24866;50.248;8.252;2024-03-29T09:04:55;4.70;;;1.25;;
37407;SDS011;24866;50.248;8.252;2024-03-29T09:07:26;4.35;;;1.13;;
37407;SDS011;24866;50.248;8.252;2024-03-29T09:09:59;3.25;;;0.93;;
37407;SDS011;24866;50.248;8.252;2024-03-29T09:12:29;3.50;;;1.10;;
37407;SDS011;24866;50.248;8.252;2024-03-29T09:15:01;2.33;;;1.20;;
37407;SDS011;24866;50.248;8.252;2024-03-29T09:17:33;3.72;;;1.42;;
37407;SDS011;24866;50.248;8.252;2024-03-29T09:20:04;1.85;;;1.00;;
37407;SDS011;24866;50.248;8.252;2024-03-29T09:22:34;3.63;;;1.30;;
37407;SDS011;24866;50.248;8.252;2024-03-29T09:25:05;3.40;;;1.02;;
37407;SDS011;24866;50.248;8.252;2024-03-29T09:27:37;2.97;;;0.90;;
37407;SDS011;24866;50.248;8.252;2024-03-29T09:30:12;3.42;;;1.40;;
37407;SDS011;24866;50.248;8.252;2024-03-29T09:32:43;3.58;;;1.00;;
37407;SDS011;24866;50.248;8.252;2024-03-29T09:35:13;2.40;;;0.90;;
37407;SDS011;24866;50.248;8.252;2024-03-29T09:37:43;2.65;;;0.70;;
37407;SDS011;24866;50.248;8.252;2024-03-29T09:40:14;2.08;;;1.10;;
37407;SDS011;24866;50.248;8.252;2024-03-29T09:42:44;2.80;;;1.05;;
37407;SDS011;24866;50.248;8.252;2024-03-29T09:45:16;4.65;;;0.90;;
37407;SDS011;24866;50.248;8.252;2024-03-29T09:47:46;2.38;;;1.02;;
37407;SDS011;24866;50.248;8.252;2024-03-29T09:50:17;4.45;;;1.30;;
37407;SDS011;24866;50.248;8.252;2024-03-29T09:52:47;1.80;;;0.93;;
37407;SDS011;24866;50.248;8.252;2024-03-29T09:55:19;3.35;;;1.15;;
37407;SDS011;24866;50.248;8.252;2024-03-29T09:57:50;4.53;;;1.55;;
37407;SDS011;24866;50.248;8.252;2024-03-29T10:00:22;3.35;;;1.40;;
37407;SDS011;24866;50.248;8.252;2024-03-29T10:02:53;4.25;;;1.30;;
37407;SDS011;24866;50.248;8.252;2024-03-29T10:05:25;4.45;;;1.38;;
37407;SDS011;24866;50.248;8.252;2024-03-29T10:07:57;3.78;;;1.00;;
37407;SDS011;24866;50.248;8.252;2024-03-29T10:10:33;4.97;;;1.65;;
37407;SDS011;24866;50.248;8.252;2024-03-29T10:13:03;2.47;;;1.17;;
37407;SDS011;24866;50.248;8.252;2024-03-29T10:15:35;2.83;;;1.38;;
37407;SDS011;24866;50.248;8.252;2024-03-29T10:18:08;2.83;;;1.05;;
37407;SDS011;24866;50.248;8.252;2024-03-29T10:20:39;4.28;;;1.35;;
37407;SDS011;24866;50.248;8.252;2024-03-29T10:23:09;4.10;;;1.00;;
37407;SDS011;24866;50.248;8.252;2024-03-29T10:25:39;3.30;;;1.27;;
37407;SDS011;24866;50.248;8.252;2024-03-29T10:28:09;6.05;;;2.38;;
37407;SDS011;24866;50.248;8.252;2024-03-29T10:30:41;4.78;;;1.52;;
37407;SDS011;24866;50.248;8.252;2024-03-29T10:33:12;5.85;;;2.47;;
37407;SDS011;24866;50.248;8.252;2024-03-29T10:35:42;4.97;;;2.38;;
37407;SDS011;24866;50.248;8.252;2024-03-29T10:38:12;2.60;;;1.45;;
37407;SDS011;24866;50.248;8.252;2024-03-29T10:40:43;4.82;;;1.60;;
37407;SDS011;24866;50.248;8.252;2024-03-29T10:43:13;6.35;;;2.97;;
37407;SDS011;24866;50.248;8.252;2024-03-29T10:45:46;2.92;;;1.33;;
37407;SDS011;24866;50.248;8.252;2024-03-29T10:48:17;4.10;;;1.83;;
37407;SDS011;24866;50.248;8.252;2024-03-29T10:50:50;5.45;;;2.53;;
37407;SDS011;24866;50.248;8.252;2024-03-29T10:53:21;3.67;;;2.10;;
37407;SDS011;24866;50.248;8.252;2024-03-29T10:55:53;5.88;;;2.28;;
37407;SDS011;24866;50.248;8.252;2024-03-29T10:58:25;3.42;;;2.08;;
37407;SDS011;24866;50.248;8.252;2024-03-29T11:00:57;4.03;;;2.08;;
37407;SDS011;24866;50.248;8.252;2024-03-29T11:03:30;5.70;;;2.30;;
37407;SDS011;24866;50.248;8.252;2024-03-29T11:06:03;5.18;;;2.15;;
37407;SDS011;24866;50.248;8.252;2024-03-29T11:08:33;5.20;;;2.22;;
37407;SDS011;24866;50.248;8.252;2024-03-29T11:13:37;5.40;;;2.08;;
37407;SDS011;24866;50.248;8.252;2024-03-29T11:16:09;3.35;;;2.30;;
37407;SDS011;24866;50.248;8.252;2024-03-29T11:18:40;5.93;;;2.85;;
37407;SDS011;24866;50.248;8.252;2024-03-29T11:21:10;4.70;;;2.88;;
37407;SDS011;24866;50.248;8.252;2024-03-29T11:23:42;5.27;;;2.90;;
37407;SDS011;24866;50.248;8.252;2024-03-29T11:26:12;6.20;;;2.90;;
37407;SDS011;24866;50.248;8.252;2024-03-29T11:28:47;5.43;;;3.67;;
37407;SDS011;24866;50.248;8.252;2024-03-29T11:31:22;4.97;;;3.40;;
37407;SDS011;24866;50.248;8.252;2024-03-29T11:33:52;5.05;;;3.45;;
37407;SDS011;24866;50.248;8.252;2024-03-29T11:36:23;6.03;;;4.53;;
37407;SDS011;24866;50.248;8.252;2024-03-29T11:38:55;5.55;;;3.35;;
37407;SDS011;24866;50.248;8.252;2024-03-29T11:41:26;7.78;;;4.68;;
37407;SDS011;24866;50.248;8.252;2024-03-29T11:43:57;8.88;;;6.45;;
37407;SDS011;24866;50.248;8.252;2024-03-29T11:46:29;9.70;;;7.15;;
37407;SDS011;24866;50.248;8.252;2024-03-29T11:49:03;10.50;;;6.03;;
37407;SDS011;24866;50.248;8.252;2024-03-29T11:51:33;8.10;;;4.93;;
37407;SDS011;24866;50.248;8.252;2024-03-29T11:54:04;8.07;;;5.43;;
37407;SDS011;24866;50.248;8.252;2024-03-29T11:56:34;7.70;;;5.18;;
37407;SDS011;24866;50.248;8.252;2024-03-29T11:59:05;8.68;;;5.65;;
37407;SDS011;24866;50.248;8.252;2024-03-29T12:01:36;9.05;;;5.57;;
37407;SDS011;24866;50.248;8.252;2024-03-29T12:04:08;8.52;;;5.68;;
37407;SDS011;24866;50.248;8.252;2024-03-29T12:06:39;7.90;;;5.70;;
37407;SDS011;24866;50.248;8.252;2024-03-29T12:09:09;9.93;;;6.80;;
37407;SDS011;24866;50.248;8.252;2024-03-29T12:11:40;7.97;;;5.53;;
37407;SDS011;24866;50.248;8.252;2024-03-29T12:14:13;8.68;;;5.80;;
37407;SDS011;24866;50.248;8.252;2024-03-29T12:16:45;6.22;;;5.10;;
37407;SDS011;24866;50.248;8.252;2024-03-29T12:19:22;9.02;;;5.95;;
37407;SDS011;24866;50.248;8.252;2024-03-29T12:21:53;7.28;;;4.95;;
37407;SDS011;24866;50.248;8.252;2024-03-29T12:24:23;6.05;;;4.78;;
37407;SDS011;24866;50.248;8.252;2024-03-29T12:26:54;8.23;;;4.63;;
37407;SDS011;24866;50.248;8.252;2024-03-29T12:29:25;7.93;;;5.10;;
37407;SDS011;24866;50.248;8.252;2024-03-29T12:31:58;7.22;;;4.85;;
37407;SDS011;24866;50.248;8.252;2024-03-29T12:34:28;5.50;;;4.28;;
37407;SDS011;24866;50.248;8.252;2024-03-29T12:36:58;5.43;;;4.20;;
37407;SDS011;24866;50.248;8.252;2024-03-29T12:39:29;6.22;;;4.93;;
37407;SDS011;24866;50.248;8.252;2024-03-29T12:42:01;6.25;;;4.50;;
37407;SDS011;24866;50.248;8.252;2024-03-29T12:44:31;6.28;;;4.28;;
37407;SDS011;24866;50.248;8.252;2024-03-29T12:47:03;5.60;;;4.60;;
37407;SDS011;24866;50.248;8.252;2024-03-29T12:49:34;7.90;;;5.63;;
37407;SDS011;24866;50.248;8.252;2024-03-29T12:52:05;7.75;;;5.65;;
37407;SDS011;24866;50.248;8.252;2024-03-29T12:54:35;6.57;;;5.38;;
37407;SDS011;24866;50.248;8.252;2024-03-29T12:57:05;8.98;;;6.13;;
37407;SDS011;24866;50.248;8.252;2024-03-29T12:59:36;7.30;;;5.97;;
37407;SDS011;24866;50.248;8.252;2024-03-29T13:02:08;9.48;;;6.22;;
37407;SDS011;24866;50.248;8.252;2024-03-29T13:04:38;8.98;;;6.65;;
37407;SDS011;24866;50.248;8.252;2024-03-29T13:07:12;10.32;;;5.13;;
37407;SDS011;24866;50.248;8.252;2024-03-29T13:09:43;9.02;;;6.25;;
37407;SDS011;24866;50.248;8.252;2024-03-29T13:12:14;5.95;;;4.88;;
37407;SDS011;24866;50.248;8.252;2024-03-29T13:14:44;7.95;;;5.85;;
37407;SDS011;24866;50.248;8.252;2024-03-29T13:17:15;8.27;;;6.60;;
37407;SDS011;24866;50.248;8.252;2024-03-29T13:19:46;8.23;;;6.60;;
37407;SDS011;24866;50.248;8.252;2024-03-29T13:22:16;6.57;;;5.80;;
37407;SDS011;24866;50.248;8.252;2024-03-29T13:24:46;7.38;;;5.72;;
37407;SDS011;24866;50.248;8.252;2024-03-29T13:27:16;7.18;;;5.22;;
37407;SDS011;24866;50.248;8.252;2024-03-29T13:29:46;7.53;;;5.13;;
37407;SDS011;24866;50.248;8.252;2024-03-29T13:32:18;6.65;;;4.88;;
37407;SDS011;24866;50.248;8.252;2024-03-29T13:34:48;4.95;;;3.75;;
37407;SDS011;24866;50.248;8.252;2024-03-29T13:37:18;7.03;;;5.53;;
37407;SDS011;24866;50.248;8.252;2024-03-29T13:39:49;4.90;;;3.42;;
37407;SDS011;24866;50.248;8.252;2024-03-29T13:42:19;6.32;;;4.60;;
37407;SDS011;24866;50.248;8.252;2024-03-29T13:44:50;4.68;;;3.85;;
37407;SDS011;24866;50.248;8.252;2024-03-29T13:47:22;5.30;;;2.83;;
37407;SDS011;24866;50.248;8.252;2024-03-29T13:49:53;6.03;;;4.00;;
37407;SDS011;24866;50.248;8.252;2024-03-29T13:52:24;5.15;;;3.53;;
37407;SDS011;24866;50.248;8.252;2024-03-29T13:54:55;6.28;;;3.17;;
37407;SDS011;24866;50.248;8.252;2024-03-29T13:57:26;4.97;;;3.80;;
37407;SDS011;24866;50.248;8.252;2024-03-29T13:59:56;5.72;;;3.72;;
37407;SDS011;24866;50.248;8.252;2024-03-29T14:02:28;6.78;;;4.07;;
37407;SDS011;24866;50.248;8.252;2024-03-29T14:04:58;5.03;;;3.83;;
37407;SDS011;24866;50.248;8.252;2024-03-29T14:07:28;4.57;;;3.88;;
37407;SDS011;24866;50.248;8.252;2024-03-29T14:09:59;5.63;;;4.82;;
37407;SDS011;24866;50.248;8.252;2024-03-29T14:12:32;8.00;;;6.32;;
37407;SDS011;24866;50.248;8.252;2024-03-29T14:15:03;9.20;;;6.57;;
37407;SDS011;24866;50.248;8.252;2024-03-29T14:17:36;7.57;;;6.50;;
37407;SDS011;24866;50.248;8.252;2024-03-29T14:20:06;9.77;;;7.50;;
37407;SDS011;24866;50.248;8.252;2024-03-29T14:22:37;7.13;;;5.68;;
37407;SDS011;24866;50.248;8.252;2024-03-29T14:25:08;8.68;;;7.53;;
37407;SDS011;24866;50.248;8.252;2024-03-29T14:27:39;8.85;;;7.57;;
37407;SDS011;24866;50.248;8.252;2024-03-29T14:30:15;8.65;;;7.57;;
37407;SDS011;24866;50.248;8.252;2024-03-29T14:32:47;8.70;;;7.25;;
37407;SDS011;24866;50.248;8.252;2024-03-29T14:35:17;9.73;;;8.47;;
37407;SDS011;24866;50.248;8.252;2024-03-29T14:37:48;10.57;;;8.27;;
37407;SDS011;24866;50.248;8.252;2024-03-29T14:40:19;8.75;;;7.32;;
37407;SDS011;24866;50.248;8.252;2024-03-29T14:42:49;7.75;;;6.47;;
37407;SDS011;24866;50.248;8.252;2024-03-29T14:45:19;10.40;;;7.07;;
37407;SDS011;24866;50.248;8.252;2024-03-29T14:47:51;11.05;;;8.60;;
37407;SDS011;24866;50.248;8.252;2024-03-29T14:50:21;11.13;;;7.78;;
37407;SDS011;24866;50.248;8.252;2024-03-29T14:52:51;8.63;;;5.75;;
37407;SDS011;24866;50.248;8.252;2024-03-29T14:55:22;7.72;;;6.82;;
37407;SDS011;24866;50.248;8.252;2024-03-29T14:57:54;8.68;;;6.65;;
37407;SDS011;24866;50.248;8.252;2024-03-29T15:00:24;6.68;;;5.97;;
37407;SDS011;24866;50.248;8.252;2024-03-29T15:02:56;8.68;;;5.57;;
37407;SDS011;24866;50.248;8.252;2024-03-29T15:05:26;8.35;;;5.65;;
37407;SDS011;24866;50.248;8.252;2024-03-29T15:07:56;9.23;;;5.32;;
37407;SDS011;24866;50.248;8.252;2024-03-29T15:10:27;7.28;;;5.40;;
37407;SDS011;24866;50.248;8.252;2024-03-29T15:12:57;7.60;;;5.18;;